createdAt,value
2017-08-09T00:02:25.470Z,98957.39
2017-08-09T00:04:53.023Z,98960.08
2017-08-09T00:07:20.538Z,98961.51
2017-08-09T00:09:48.080Z,98966.02
2017-08-09T00:12:15.605Z,98972.53
2017-08-09T00:14:43.172Z,98974.78
2017-08-09T00:17:10.689Z,98972.48
2017-08-09T00:19:38.250Z,98980.73
2017-08-09T00:22:05.773Z,98980.91
2017-08-09T00:24:33.318Z,98980.91
2017-08-09T00:27:00.834Z,98985.48
2017-08-09T00:29:28.389Z,98982.46
2017-08-09T00:31:55.902Z,98986.48
2017-08-09T00:34:23.423Z,98995.86
2017-08-09T00:36:50.970Z,98992.34
2017-08-09T00:39:18.482Z,98996.34
2017-08-09T00:41:46.025Z,98998.33
2017-08-09T00:44:13.550Z,99001.00
2017-08-09T00:46:41.133Z,98996.80
2017-08-09T00:49:08.654Z,98998.98
2017-08-09T00:51:36.193Z,99010.89
2017-08-09T00:54:03.708Z,99017.17
2017-08-09T00:56:31.254Z,99011.33
2017-08-09T00:58:58.771Z,99010.37
2017-08-09T01:01:26.340Z,99018.45
2017-08-09T01:03:54.479Z,99019.09
2017-08-09T01:06:22.038Z,99027.98
2017-08-09T01:08:49.580Z,99023.60
2017-08-09T01:11:17.130Z,99023.48
2017-08-09T01:13:44.661Z,99022.94
2017-08-09T01:16:12.213Z,99021.00
2017-08-09T01:18:39.738Z,99027.27
2017-08-09T01:21:07.307Z,99036.87
2017-08-09T01:23:34.826Z,99034.94
2017-08-09T01:26:02.345Z,99036.30
2017-08-09T01:28:29.893Z,99027.41
2017-08-09T01:30:57.414Z,99013.47
2017-08-09T01:33:24.997Z,99015.31
2017-08-09T01:35:52.507Z,99012.12
2017-08-09T01:38:20.058Z,99012.70
2017-08-09T01:40:47.606Z,99009.90
2017-08-09T01:43:15.154Z,99014.42
2017-08-09T01:45:42.672Z,99000.11
2017-08-09T01:48:10.222Z,98993.66
2017-08-09T01:50:37.734Z,98993.21
2017-08-09T01:53:05.309Z,98995.25
2017-08-09T01:55:32.831Z,99002.23
2017-08-09T01:58:00.346Z,98994.92
2017-08-09T02:00:27.906Z,98988.92
2017-08-09T02:02:55.510Z,98999.12
2017-08-09T02:05:23.130Z,98995.83
2017-08-09T02:07:50.654Z,98999.39
2017-08-09T02:10:18.213Z,98998.36
2017-08-09T02:12:45.733Z,98995.14
2017-08-09T02:15:13.253Z,99002.14
2017-08-09T02:17:40.810Z,98997.23
2017-08-09T02:20:08.324Z,99003.05
2017-08-09T02:22:35.878Z,99009.23
2017-08-09T02:25:03.395Z,99006.39
2017-08-09T02:27:30.949Z,99002.64
2017-08-09T02:29:58.474Z,98998.89
2017-08-09T02:32:26.029Z,99000.78
2017-08-09T02:34:53.553Z,99005.16
2017-08-09T02:37:21.247Z,99014.09
2017-08-09T02:39:48.779Z,99004.77
2017-08-09T02:42:16.299Z,99008.82
2017-08-09T02:44:43.863Z,99012.66
2017-08-09T02:47:11.614Z,99009.77
2017-08-09T02:49:39.184Z,99000.16
2017-08-09T02:52:06.702Z,99004.17
2017-08-09T02:54:34.256Z,99002.77
2017-08-09T02:57:01.771Z,98992.08
2017-08-09T02:59:29.318Z,98998.77
2017-08-09T03:01:56.840Z,98996.95
2017-08-09T03:04:24.399Z,98990.64
2017-08-09T03:06:51.929Z,98999.21
2017-08-09T03:09:19.485Z,98998.98
2017-08-09T03:11:47.009Z,99008.28
2017-08-09T03:14:14.522Z,99011.58
2017-08-09T03:16:42.073Z,99016.85
2017-08-09T03:19:09.586Z,99018.06
2017-08-09T03:21:37.157Z,99023.72
2017-08-09T03:24:04.672Z,99024.29
2017-08-09T03:26:32.218Z,99018.70
2017-08-09T03:28:59.737Z,99021.38
2017-08-09T03:31:27.284Z,99034.36
2017-08-09T03:33:55.167Z,99036.93
2017-08-09T03:36:22.716Z,99037.38
2017-08-09T03:38:50.231Z,99034.50
2017-08-09T03:41:17.789Z,99034.45
2017-08-09T03:43:45.313Z,99041.27
2017-08-09T03:46:12.865Z,99042.75
2017-08-09T03:48:40.394Z,99050.64
2017-08-09T03:51:07.949Z,99048.02
2017-08-09T03:53:35.478Z,99049.78
2017-08-09T03:56:02.996Z,99056.97
2017-08-09T03:58:30.545Z,99047.66
2017-08-09T04:00:58.066Z,99046.30
2017-08-09T04:03:25.620Z,99046.36
2017-08-09T04:05:53.145Z,99046.99
2017-08-09T04:08:20.706Z,99050.14
2017-08-09T04:10:48.221Z,99048.56
2017-08-09T04:13:15.774Z,99050.95
2017-08-09T04:15:43.325Z,99048.43
2017-08-09T04:18:10.890Z,99058.14
2017-08-09T04:20:38.409Z,99064.09
2017-08-09T04:23:05.951Z,99061.23
2017-08-09T04:25:33.464Z,99065.80
2017-08-09T04:28:01.093Z,99071.50
2017-08-09T04:30:28.613Z,99072.92
2017-08-09T04:32:56.160Z,99070.48
2017-08-09T04:35:23.676Z,99064.71
2017-08-09T04:37:51.226Z,99072.47
2017-08-09T04:40:18.785Z,99073.78
2017-08-09T04:42:46.329Z,99077.28
2017-08-09T04:45:13.848Z,99085.67
2017-08-09T04:47:41.374Z,99090.68
2017-08-09T04:50:08.919Z,99089.67
2017-08-09T04:52:36.434Z,99080.75
2017-08-09T04:55:03.986Z,99085.56
2017-08-09T04:57:31.508Z,99088.94
2017-08-09T04:59:59.063Z,99094.09
2017-08-09T05:02:26.590Z,99090.47
2017-08-09T05:04:54.133Z,99091.53
2017-08-09T05:07:21.648Z,99091.91
2017-08-09T05:09:49.245Z,99096.95
2017-08-09T05:12:16.765Z,99096.56
2017-08-09T05:14:44.308Z,99092.98
2017-08-09T05:17:11.822Z,99094.37
2017-08-09T05:19:39.376Z,99102.80
2017-08-09T05:22:06.884Z,99101.73
2017-08-09T05:24:34.475Z,99102.66
2017-08-09T05:27:02.004Z,99099.88
2017-08-09T05:29:29.578Z,99092.24
2017-08-09T05:31:57.099Z,99098.25
2017-08-09T05:34:24.624Z,99094.55
2017-08-09T05:36:52.179Z,99099.56
2017-08-09T05:39:19.697Z,99097.80
2017-08-09T05:41:47.256Z,99103.85
2017-08-09T05:44:14.783Z,99106.56
2017-08-09T05:46:42.339Z,99112.38
2017-08-09T05:49:09.860Z,99112.29
2017-08-09T05:51:37.405Z,99117.43
2017-08-09T05:54:04.918Z,99113.02
2017-08-09T05:56:32.482Z,99112.84
2017-08-09T05:58:59.995Z,99105.44
2017-08-09T06:01:27.509Z,99110.98
2017-08-09T06:03:55.512Z,99109.46
2017-08-09T06:06:23.033Z,99111.75
2017-08-09T06:08:50.582Z,99111.63
2017-08-09T06:11:18.116Z,99114.33
2017-08-09T06:13:45.665Z,99117.13
2017-08-09T06:16:13.213Z,99120.42
2017-08-09T06:18:40.788Z,99122.72
2017-08-09T06:21:08.323Z,99114.33
2017-08-09T06:23:35.883Z,99115.95
2017-08-09T06:26:03.407Z,99112.39
2017-08-09T06:28:30.973Z,99123.19
2017-08-09T06:30:58.502Z,99120.33
2017-08-09T06:33:26.050Z,99115.00
2017-08-09T06:35:53.564Z,99122.20
2017-08-09T06:38:21.122Z,99121.19
2017-08-09T06:40:48.641Z,99122.78
2017-08-09T06:43:16.184Z,99122.05
2017-08-09T06:45:43.707Z,99120.08
2017-08-09T06:48:11.276Z,99114.25
2017-08-09T06:50:38.799Z,99111.81
2017-08-09T06:53:06.342Z,99115.19
2017-08-09T06:55:33.887Z,99115.02
2017-08-09T06:58:01.413Z,99119.66
2017-08-09T07:00:29.024Z,99120.84
2017-08-09T07:02:56.549Z,99123.14
2017-08-09T07:05:24.096Z,99121.02
2017-08-09T07:07:51.622Z,99121.78
2017-08-09T07:10:19.174Z,99133.07
2017-08-09T07:12:46.721Z,99124.09
2017-08-09T07:15:14.275Z,99129.73
2017-08-09T07:17:41.806Z,99129.09
2017-08-09T07:20:09.353Z,99132.97
2017-08-09T07:22:36.886Z,99130.08
2017-08-09T07:25:04.456Z,99125.89
2017-08-09T07:27:32.006Z,99124.22
2017-08-09T07:29:59.589Z,99125.44
2017-08-09T07:32:27.108Z,99124.98
2017-08-09T07:34:54.632Z,99121.41
2017-08-09T07:37:22.184Z,99121.37
2017-08-09T07:39:49.704Z,99118.84
2017-08-09T07:42:17.254Z,99112.57
2017-08-09T07:44:44.768Z,99115.23
2017-08-09T07:47:12.321Z,99109.37
2017-08-09T07:49:39.840Z,99106.08
2017-08-09T07:52:07.460Z,99111.49
2017-08-09T07:54:34.982Z,99110.36
2017-08-09T07:57:02.543Z,99109.06
2017-08-09T07:59:30.076Z,99107.30
2017-08-09T08:01:57.636Z,99100.61
2017-08-09T08:04:25.152Z,99102.23
2017-08-09T08:06:52.718Z,99095.19
2017-08-09T08:09:20.255Z,99091.18
2017-08-09T08:11:47.814Z,99103.54
2017-08-09T08:14:15.335Z,99090.81
2017-08-09T08:16:42.903Z,99096.82
2017-08-09T08:19:10.426Z,99108.23
2017-08-09T08:21:37.993Z,99099.88
2017-08-09T08:24:05.519Z,99104.71
2017-08-09T08:26:33.041Z,99104.00
2017-08-09T08:29:00.585Z,99104.00
2017-08-09T08:31:28.096Z,99108.51
2017-08-09T08:33:56.528Z,99105.76
2017-08-09T08:36:24.046Z,99099.39
2017-08-09T08:38:51.605Z,99096.14
2017-08-09T08:41:19.122Z,99093.73
2017-08-09T08:43:46.672Z,99097.55
2017-08-09T08:46:14.183Z,99099.75
2017-08-09T08:48:43.328Z,99104.17
2017-08-09T08:51:12.397Z,99100.66
2017-08-09T08:53:41.572Z,99095.24
2017-08-09T08:56:09.494Z,99093.47
2017-08-09T08:58:38.218Z,99092.52
2017-08-09T09:01:07.310Z,99088.59
2017-08-09T09:03:36.433Z,99074.83
2017-08-09T09:06:05.342Z,99084.94
2017-08-09T09:08:33.162Z,99079.92
2017-08-09T09:11:02.168Z,99068.09
2017-08-09T09:13:31.030Z,99063.64
2017-08-09T09:16:00.014Z,99062.02
2017-08-09T09:18:27.979Z,99053.08
2017-08-09T09:20:56.014Z,99042.91
2017-08-09T09:23:24.855Z,99038.98
2017-08-09T09:25:52.675Z,99039.58
2017-08-09T09:28:20.852Z,99051.98
2017-08-09T09:30:49.253Z,99056.14
2017-08-09T09:33:17.991Z,99056.95
2017-08-09T09:35:45.667Z,99046.43
2017-08-09T09:38:13.193Z,99048.23
2017-08-09T09:40:40.750Z,99045.27
2017-08-09T09:43:08.353Z,99051.35
2017-08-09T09:45:35.961Z,99052.98
2017-08-09T09:48:03.483Z,99052.03
2017-08-09T09:50:31.038Z,99050.80
2017-08-09T09:52:58.562Z,99047.56
2017-08-09T09:55:26.126Z,99055.46
2017-08-09T09:57:53.645Z,99047.14
2017-08-09T10:00:21.271Z,99045.22
2017-08-09T10:02:48.827Z,99039.02
2017-08-09T10:05:16.353Z,99041.73
2017-08-09T10:07:43.901Z,99049.95
2017-08-09T10:10:11.451Z,99052.97
2017-08-09T10:12:39.002Z,99046.34
2017-08-09T10:15:06.520Z,99050.00
2017-08-09T10:17:34.081Z,99055.99
2017-08-09T10:20:01.603Z,99056.94
2017-08-09T10:22:29.153Z,99061.28
2017-08-09T10:24:56.678Z,99053.42
2017-08-09T10:27:24.230Z,99064.93
2017-08-09T10:29:51.745Z,99063.95
2017-08-09T10:32:19.299Z,99066.97
2017-08-09T10:34:46.824Z,99071.31
2017-08-09T10:37:14.449Z,99064.84
2017-08-09T10:39:41.965Z,99074.02
2017-08-09T10:42:09.523Z,99068.64
2017-08-09T10:44:37.047Z,99074.42
2017-08-09T10:47:04.561Z,99067.23
2017-08-09T10:49:32.157Z,99074.55
2017-08-09T10:51:59.695Z,99072.30
2017-08-09T10:54:27.253Z,99072.30
2017-08-09T10:56:54.771Z,99069.35
2017-08-09T10:59:22.398Z,99066.73
2017-08-09T11:01:49.924Z,99064.43
2017-08-09T11:04:17.472Z,99066.23
2017-08-09T11:06:45.012Z,99062.53
2017-08-09T11:09:12.566Z,99066.00
2017-08-09T11:11:40.077Z,99062.17
2017-08-09T11:14:07.642Z,99062.44
2017-08-09T11:16:35.161Z,99062.03
2017-08-09T11:19:02.721Z,99064.65
2017-08-09T11:21:30.240Z,99064.91
2017-08-09T11:23:57.830Z,99065.09
2017-08-09T11:26:25.346Z,99064.02
2017-08-09T11:28:52.868Z,99060.81
2017-08-09T11:31:20.467Z,99044.18
2017-08-09T11:33:48.003Z,99054.40
2017-08-09T11:36:15.563Z,99053.59
2017-08-09T11:38:43.081Z,99059.54
2017-08-09T11:41:10.638Z,99061.34
2017-08-09T11:43:38.165Z,99061.80
2017-08-09T11:46:05.709Z,99069.84
2017-08-09T11:48:33.221Z,99071.73
2017-08-09T11:51:00.773Z,99069.66
2017-08-09T11:53:28.300Z,99070.56
2017-08-09T11:55:55.844Z,99061.80
2017-08-09T11:58:23.376Z,99064.83
2017-08-09T12:00:50.979Z,99065.05
2017-08-09T12:03:18.503Z,99058.54
2017-08-09T12:05:46.053Z,99055.33
2017-08-09T12:08:13.569Z,99053.83
2017-08-09T12:10:41.118Z,99053.83
2017-08-09T12:13:08.632Z,99058.30
2017-08-09T12:15:36.213Z,99058.23
2017-08-09T12:18:03.795Z,99050.23
2017-08-09T12:20:31.300Z,99054.88
2017-08-09T12:22:58.848Z,99052.42
2017-08-09T12:25:26.373Z,99052.88
2017-08-09T12:27:53.931Z,99050.31
2017-08-09T12:30:22.790Z,99053.11
2017-08-09T12:32:50.569Z,99047.59
2017-08-09T12:35:18.155Z,99050.36
2017-08-09T12:37:45.939Z,99048.28
2017-08-09T12:40:13.761Z,99043.78
2017-08-09T12:42:42.141Z,99049.17
2017-08-09T12:45:10.258Z,99041.45
2017-08-09T12:47:38.227Z,99046.41
2017-08-09T12:50:06.669Z,99044.11
2017-08-09T12:52:35.204Z,99038.33
2017-08-09T12:55:02.941Z,99038.56
2017-08-09T12:57:30.954Z,99033.31
2017-08-09T12:59:58.656Z,99031.96
2017-08-09T13:02:26.430Z,99032.36
2017-08-09T13:04:55.536Z,99029.20
2017-08-09T13:07:23.274Z,99028.13
2017-08-09T13:09:51.165Z,99026.31
2017-08-09T13:12:18.752Z,99026.48
2017-08-09T13:14:46.269Z,99019.66
2017-08-09T13:17:13.786Z,99022.00
2017-08-09T13:19:41.326Z,99020.02
2017-08-09T13:22:08.852Z,99017.01
2017-08-09T13:24:36.412Z,99009.98
2017-08-09T13:27:03.940Z,99010.67
2017-08-09T13:29:31.500Z,99012.52
2017-08-09T13:31:59.026Z,99012.02
2017-08-09T13:34:26.568Z,99007.06
2017-08-09T13:36:54.122Z,99003.80
2017-08-09T13:39:21.665Z,99001.45
2017-08-09T13:41:49.181Z,98999.83
2017-08-09T13:44:16.724Z,98992.05
2017-08-09T13:46:44.254Z,98996.87
2017-08-09T13:49:11.798Z,99001.48
2017-08-09T13:51:39.337Z,98994.49
2017-08-09T13:54:06.900Z,98992.59
2017-08-09T13:56:34.417Z,98993.70
2017-08-09T13:59:01.998Z,98995.81
2017-08-09T14:01:29.524Z,98993.47
2017-08-09T14:03:57.041Z,98994.70
2017-08-09T14:06:24.592Z,98995.60
2017-08-09T14:08:52.109Z,99004.51
2017-08-09T14:11:19.670Z,98998.42
2017-08-09T14:13:47.188Z,98993.89
2017-08-09T14:16:14.738Z,98994.97
2017-08-09T14:18:42.261Z,99001.83
2017-08-09T14:21:09.808Z,99003.50
2017-08-09T14:23:37.334Z,98998.48
2017-08-09T14:26:04.884Z,99007.72
2017-08-09T14:28:32.405Z,98999.38
2017-08-09T14:30:59.953Z,99007.98
2017-08-09T14:33:27.476Z,99017.64
2017-08-09T14:35:55.039Z,99014.23
2017-08-09T14:38:22.555Z,99020.81
2017-08-09T14:40:50.134Z,99020.72
2017-08-09T14:43:17.657Z,99023.02
2017-08-09T14:45:45.206Z,99020.31
2017-08-09T14:48:12.726Z,99019.86
2017-08-09T14:50:40.244Z,99017.70
2017-08-09T14:53:07.797Z,99019.12
2017-08-09T14:55:35.312Z,99022.28
2017-08-09T14:58:02.867Z,99013.70
2017-08-09T15:00:30.384Z,99015.05
2017-08-09T15:02:57.937Z,99016.66
2017-08-09T15:05:25.469Z,99021.22
2017-08-09T15:07:53.022Z,99023.38
2017-08-09T15:10:20.532Z,99019.31
2017-08-09T15:12:48.079Z,99013.28
2017-08-09T15:15:15.591Z,99022.57
2017-08-09T15:17:43.145Z,99025.33
2017-08-09T15:20:10.674Z,99019.72
2017-08-09T15:22:38.243Z,99019.00
2017-08-09T15:25:05.761Z,99024.69
2017-08-09T15:27:33.286Z,99011.03
2017-08-09T15:30:01.211Z,99017.11
2017-08-09T15:32:28.732Z,99016.00
2017-08-09T15:34:56.278Z,99021.26
2017-08-09T15:37:23.804Z,99023.66
2017-08-09T15:39:51.357Z,99014.98
2017-08-09T15:42:18.878Z,99009.97
2017-08-09T15:44:46.438Z,99007.15
2017-08-09T15:47:13.958Z,99003.95
2017-08-09T15:49:41.521Z,98997.57
2017-08-09T15:52:09.041Z,99004.80
2017-08-09T15:54:36.589Z,99011.67
2017-08-09T15:57:04.108Z,99015.66
2017-08-09T15:59:31.659Z,99017.30
2017-08-09T16:01:59.176Z,99010.58
2017-08-09T16:04:26.755Z,99007.32
2017-08-09T16:06:54.278Z,99005.03
2017-08-09T16:09:21.791Z,99008.27
2017-08-09T16:11:49.342Z,99014.02
2017-08-09T16:14:16.869Z,99008.77
2017-08-09T16:16:44.430Z,99009.08
2017-08-09T16:19:11.947Z,99010.93
2017-08-09T16:21:39.505Z,99006.02
2017-08-09T16:24:07.025Z,98999.07
2017-08-09T16:26:34.572Z,99015.14
2017-08-09T16:29:02.094Z,99016.89
2017-08-09T16:31:29.652Z,99015.51
2017-08-09T16:33:57.170Z,99009.77
2017-08-09T16:36:24.718Z,99015.92
2017-08-09T16:38:52.241Z,99007.80
2017-08-09T16:41:19.793Z,99005.16
2017-08-09T16:43:47.309Z,99003.59
2017-08-09T16:46:14.859Z,99007.11
2017-08-09T16:48:42.373Z,99001.38
2017-08-09T16:51:09.917Z,99002.53
2017-08-09T16:53:37.434Z,99002.69
2017-08-09T16:56:04.948Z,99001.97
2017-08-09T16:58:32.492Z,99005.80
2017-08-09T17:01:00.008Z,99002.23
2017-08-09T17:03:27.557Z,99000.47
2017-08-09T17:05:55.087Z,98998.16
2017-08-09T17:08:22.638Z,98998.23
2017-08-09T17:10:50.164Z,99002.39
2017-08-09T17:13:17.745Z,98995.59
2017-08-09T17:15:45.276Z,98995.31
2017-08-09T17:18:12.825Z,98992.73
2017-08-09T17:20:40.352Z,98999.25
2017-08-09T17:23:07.911Z,98994.58
2017-08-09T17:25:35.434Z,98998.22
2017-08-09T17:28:02.989Z,98990.59
2017-08-09T17:30:30.504Z,98983.88
2017-08-09T17:32:58.056Z,98992.62
2017-08-09T17:35:25.580Z,98993.30
2017-08-09T17:37:53.133Z,98995.66
2017-08-09T17:40:20.643Z,98996.41
2017-08-09T17:42:48.215Z,98995.61
2017-08-09T17:45:15.746Z,98992.61
2017-08-09T17:47:43.268Z,98986.02
2017-08-09T17:50:10.821Z,98984.11
2017-08-09T17:52:38.341Z,98995.59
2017-08-09T17:55:05.892Z,98989.52
2017-08-09T17:57:33.411Z,98995.85
2017-08-09T18:00:00.965Z,98990.04
2017-08-09T18:02:28.476Z,98991.93
2017-08-09T18:04:56.251Z,98986.64
2017-08-09T18:07:24.133Z,98986.00
2017-08-09T18:09:51.882Z,98987.27
2017-08-09T18:12:20.037Z,98988.25
2017-08-09T18:14:47.724Z,98990.85
2017-08-09T18:17:15.281Z,98996.34
2017-08-09T18:19:42.864Z,99001.45
2017-08-09T18:22:10.384Z,98995.56
2017-08-09T18:24:37.940Z,98997.64
2017-08-09T18:27:05.465Z,99006.06
2017-08-09T18:29:33.042Z,98999.59
2017-08-09T18:32:00.844Z,98986.58
2017-08-09T18:34:28.381Z,98979.80
2017-08-09T18:36:55.930Z,98974.50
2017-08-09T18:39:23.444Z,98960.88
2017-08-09T18:41:50.989Z,98952.34
2017-08-09T18:44:18.506Z,98951.98
2017-08-09T18:46:46.054Z,98960.27
2017-08-09T18:49:13.570Z,98949.56
2017-08-09T18:51:41.118Z,98954.76
2017-08-09T18:54:08.633Z,98957.30
2017-08-09T18:56:36.179Z,98963.94
2017-08-09T18:59:03.693Z,98965.14
2017-08-09T19:01:31.416Z,98969.62
2017-08-09T19:03:58.979Z,98961.08
2017-08-09T19:06:26.531Z,98965.78
2017-08-09T19:08:54.051Z,98959.58
2017-08-09T19:11:21.604Z,98962.52
2017-08-09T19:13:49.123Z,98970.57
2017-08-09T19:16:16.678Z,98976.62
2017-08-09T19:18:44.199Z,98978.25
2017-08-09T19:21:11.843Z,98986.64
2017-08-09T19:23:39.436Z,98984.08
2017-08-09T19:26:06.997Z,98984.08
2017-08-09T19:28:34.548Z,98987.05
2017-08-09T19:31:02.070Z,98988.23
2017-08-09T19:33:29.697Z,98994.78
2017-08-09T19:35:57.330Z,98992.70
2017-08-09T19:38:24.886Z,99000.03
2017-08-09T19:40:52.403Z,99003.15
2017-08-09T19:43:19.957Z,98992.07
2017-08-09T19:45:47.477Z,98995.27
2017-08-09T19:48:15.029Z,98992.02
2017-08-09T19:50:42.549Z,98998.27
2017-08-09T19:53:10.105Z,98999.34
2017-08-09T19:55:37.629Z,99004.45
2017-08-09T19:58:05.185Z,99002.86
2017-08-09T20:00:32.702Z,99010.05
2017-08-09T20:03:00.277Z,99016.57
2017-08-09T20:05:28.183Z,99019.63
2017-08-09T20:07:55.704Z,99022.45
2017-08-09T20:10:23.256Z,99027.33
2017-08-09T20:12:50.781Z,99018.67
2017-08-09T20:15:18.335Z,99026.27
2017-08-09T20:17:45.861Z,99016.48
2017-08-09T20:20:13.407Z,99041.07
2017-08-09T20:22:40.917Z,99049.16
2017-08-09T20:25:08.465Z,99063.64
2017-08-09T20:27:36.022Z,99079.41
2017-08-09T20:30:03.604Z,99093.41
2017-08-09T20:32:31.127Z,99102.33
2017-08-09T20:34:58.689Z,99112.16
2017-08-09T20:37:26.229Z,99125.98
2017-08-09T20:39:53.801Z,99153.96
2017-08-09T20:42:21.333Z,99159.84
2017-08-09T20:44:48.879Z,99163.38
2017-08-09T20:47:16.426Z,99162.44
2017-08-09T20:49:43.951Z,99133.30
2017-08-09T20:52:11.491Z,99132.20
2017-08-09T20:54:39.015Z,99132.70
2017-08-09T20:57:06.568Z,99139.08
2017-08-09T20:59:34.193Z,99147.21
2017-08-09T21:02:01.745Z,99139.39
2017-08-09T21:04:29.257Z,99144.00
2017-08-09T21:06:56.809Z,99149.28
2017-08-09T21:09:24.330Z,99158.42
2017-08-09T21:11:51.891Z,99170.91
2017-08-09T21:14:19.430Z,99167.80
2017-08-09T21:16:46.980Z,99174.43
2017-08-09T21:19:14.549Z,99174.84
2017-08-09T21:21:42.112Z,99177.05
2017-08-09T21:24:09.660Z,99183.25
2017-08-09T21:26:37.209Z,99193.52
2017-08-09T21:29:04.738Z,99187.87
2017-08-09T21:31:33.158Z,99185.61
2017-08-09T21:34:00.674Z,99171.91
2017-08-09T21:36:28.188Z,99168.03
2017-08-09T21:38:55.733Z,99160.98
2017-08-09T21:41:23.260Z,99159.49
2017-08-09T21:43:50.810Z,99169.55
2017-08-09T21:46:18.365Z,99173.73
2017-08-09T21:48:45.915Z,99185.80
2017-08-09T21:51:13.432Z,99188.77
2017-08-09T21:53:40.981Z,99189.86
2017-08-09T21:56:08.502Z,99190.17
2017-08-09T21:58:36.079Z,99190.73
2017-08-09T22:01:03.632Z,99182.92
2017-08-09T22:03:31.184Z,99179.27
2017-08-09T22:05:58.727Z,99179.67
2017-08-09T22:08:26.277Z,99172.81
2017-08-09T22:10:53.802Z,99176.74
2017-08-09T22:13:21.345Z,99182.16
2017-08-09T22:15:48.865Z,99184.59
2017-08-09T22:18:16.425Z,99188.25
2017-08-09T22:20:43.947Z,99186.73
2017-08-09T22:23:11.510Z,99197.03
2017-08-09T22:25:39.026Z,99191.61
2017-08-09T22:28:06.557Z,99188.94
2017-08-09T22:30:34.117Z,99196.27
2017-08-09T22:33:01.650Z,99207.11
2017-08-09T22:35:29.282Z,99219.30
2017-08-09T22:37:56.821Z,99223.92
2017-08-09T22:40:24.398Z,99228.84
2017-08-09T22:42:51.922Z,99234.57
2017-08-09T22:45:19.470Z,99234.30
2017-08-09T22:47:46.987Z,99235.75
2017-08-09T22:50:14.535Z,99233.31
2017-08-09T22:52:42.058Z,99233.05
2017-08-09T22:55:09.618Z,99229.15
2017-08-09T22:57:37.146Z,99225.72
2017-08-09T23:00:04.724Z,99214.64
2017-08-09T23:02:32.283Z,99210.31
2017-08-09T23:04:59.824Z,99217.59
2017-08-09T23:07:27.372Z,99228.74
2017-08-09T23:09:54.906Z,99223.46
2017-08-09T23:12:22.464Z,99231.00
2017-08-09T23:14:49.997Z,99226.67
2017-08-09T23:17:17.557Z,99223.02
2017-08-09T23:19:45.161Z,99232.77
2017-08-09T23:22:12.710Z,99236.12
2017-08-09T23:24:40.228Z,99235.48
2017-08-09T23:27:07.774Z,99232.45
2017-08-09T23:29:35.290Z,99227.75
2017-08-09T23:32:02.838Z,99222.73
2017-08-09T23:34:30.354Z,99214.05
2017-08-09T23:36:57.910Z,99218.50
2017-08-09T23:39:25.441Z,99213.88
2017-08-09T23:41:52.959Z,99207.82
2017-08-09T23:44:20.522Z,99208.37
2017-08-09T23:46:48.070Z,99211.48
2017-08-09T23:49:15.626Z,99223.14
2017-08-09T23:51:43.151Z,99226.44
2017-08-09T23:54:10.709Z,99231.55
2017-08-09T23:56:38.225Z,99228.20
2017-08-09T23:59:05.769Z,99234.70
